PWSweather.com
Personal Weather Stations
Station Observations

PoschiavoCH

Lat: 46.31962499999999, Lon: 10.066551000000004

Elevation: 3517

Station Type: WH 1080

http://www.meteoposchiavo.com

High Low Average
Temperature 57.0°F13.9°F 44.0°F6.7°F 47.0°F8.3°F
Dew Point 50.2°F10.1°F 43.7°F6.5°F 45.7°F7.6°F
Winds 5.8 mph -9.3 mph - Calm Calm 0.7 mph 1.1 mph
Wind Gusts 11.5 mph18.5 mph -- 1.3 mph2.1 mph
Humidity 99% 72% 96%
Pressure 26.60 in900.80 in 26.36 in892.70 in -
Precipitation 7.78 in197.60 in - -
Hour Temp Dew Point Humidity Winds Wind Gusts Pressure Precip Precip Rate Daily Precip Total
12:00 AM 45.0°F7.2°C 44.7°F7.1°C 99% Calm Calm -- 26.37 in893.0 mb - 0.06 in1.5 mm 0.06 in1.5 mm
12:10 AM 45.0°F7.2°C 44.7°F7.1°C 99% Calm Calm -- 26.36 in892.7 mb - 0.06 in1.5 mm 0.06 in1.5 mm
12:15 AM 45.0°F7.2°C 44.7°F7.1°C 99% Calm Calm -- 26.37 in893.0 mb - 0.07 in1.8 mm 0.07 in1.8 mm
12:20 AM 45.0°F7.2°C 44.7°F7.1°C 99% Calm Calm -- 26.37 in893.0 mb - 0.06 in1.5 mm 0.07 in1.8 mm
12:25 AM 45.0°F7.2°C 44.7°F7.1°C 99% Calm Calm -- 26.37 in893.0 mb - 0.05 in1.3 mm 0.07 in1.8 mm
12:30 AM 45.0°F7.2°C 44.7°F7.1°C 99% Calm Calm -- 26.37 in893.0 mb - 0.04 in1.0 mm 0.07 in1.8 mm
12:35 AM 45.0°F7.2°C 44.7°F7.1°C 99% Calm Calm -- 26.38 in893.3 mb - 0.04 in1.0 mm 0.09 in2.3 mm
12:40 AM 45.0°F7.2°C 44.7°F7.1°C 99% Calm Calm -- 26.37 in893.0 mb - 0.04 in1.0 mm 0.10 in2.5 mm
12:45 AM 45.0°F7.2°C 44.7°F7.1°C 99% Calm Calm 1.2 mph1.9 kmh 26.38 in893.3 mb - 0.04 in1.0 mm 0.10 in2.5 mm
12:50 AM 45.0°F7.2°C 44.7°F7.1°C 99% Calm Calm -- 26.38 in893.3 mb - 0.04 in1.0 mm 0.10 in2.5 mm
12:55 AM 45.0°F7.2°C 44.7°F7.1°C 99% Calm Calm -- 26.38 in893.3 mb - 0.04 in1.0 mm 0.10 in2.5 mm
01:00 AM 45.0°F7.2°C 44.7°F7.1°C 99% Calm Calm -- 26.38 in893.3 mb - 0.04 in1.0 mm 0.10 in2.5 mm
01:10 AM 45.0°F7.2°C 44.7°F7.1°C 99% Calm Calm -- 26.38 in893.3 mb - 0.04 in1.0 mm 0.10 in2.5 mm
01:15 AM 44.0°F6.7°C 43.7°F6.5°C 99% Calm Calm -- 26.37 in893.0 mb - 0.03 in0.8 mm 0.10 in2.5 mm
01:20 AM 44.0°F6.7°C 43.7°F6.5°C 99% Calm Calm -- 26.37 in893.0 mb - 0.03 in0.8 mm 0.10 in2.5 mm
01:25 AM 44.0°F6.7°C 43.7°F6.5°C 99% Calm Calm -- 26.37 in893.0 mb - 0.03 in0.8 mm 0.10 in2.5 mm
01:30 AM 44.0°F6.7°C 43.7°F6.5°C 99% Calm Calm -- 26.37 in893.0 mb - 0.03 in0.8 mm 0.10 in2.5 mm
01:35 AM 44.0°F6.7°C 43.7°F6.5°C 99% Calm Calm -- 26.37 in893.0 mb - 0.01 in0.3 mm 0.10 in2.5 mm
01:40 AM 45.0°F7.2°C 44.7°F7.1°C 99% Calm Calm -- 26.37 in893.0 mb - 0.00 in0.0 mm 0.10 in2.5 mm
01:45 AM 45.0°F7.2°C 44.7°F7.1°C 99% Calm Calm -- 26.37 in893.0 mb - 0.00 in0.0 mm 0.10 in2.5 mm
01:50 AM 45.0°F7.2°C 44.7°F7.1°C 99% Calm Calm -- 26.37 in893.0 mb - 0.00 in0.0 mm 0.10 in2.5 mm
01:55 AM 45.0°F7.2°C 44.7°F7.1°C 99% Calm Calm -- 26.37 in893.0 mb - 0.00 in0.0 mm 0.10 in2.5 mm
02:00 AM 45.0°F7.2°C 44.7°F7.1°C 99% Calm Calm -- 26.37 in893.0 mb - 0.00 in0.0 mm 0.10 in2.5 mm
02:10 AM 45.0°F7.2°C 44.7°F7.1°C 99% Calm Calm -- 26.37 in893.0 mb - 0.00 in0.0 mm 0.10 in2.5 mm
02:15 AM 45.0°F7.2°C 44.7°F7.1°C 99% Calm Calm -- 26.37 in893.0 mb - 0.00 in0.0 mm 0.10 in2.5 mm
02:20 AM 45.0°F7.2°C 44.7°F7.1°C 99% Calm Calm -- 26.37 in893.0 mb - 0.01 in0.3 mm 0.11 in2.8 mm
02:25 AM 45.0°F7.2°C 44.7°F7.1°C 99% Calm Calm -- 26.37 in893.0 mb - 0.01 in0.3 mm 0.11 in2.8 mm
02:30 AM 45.0°F7.2°C 44.7°F7.1°C 99% Calm Calm -- 26.38 in893.3 mb - 0.01 in0.3 mm 0.11 in2.8 mm
02:35 AM 45.0°F7.2°C 44.7°F7.1°C 99% Calm Calm -- 26.37 in893.0 mb - 0.01 in0.3 mm 0.11 in2.8 mm
02:40 AM 45.0°F7.2°C 44.7°F7.1°C 99% Calm Calm -- 26.37 in893.0 mb - 0.01 in0.3 mm 0.11 in2.8 mm
02:45 AM 45.0°F7.2°C 44.7°F7.1°C 99% Calm Calm -- 26.37 in893.0 mb - 0.01 in0.3 mm 0.11 in2.8 mm
02:50 AM 45.0°F7.2°C 44.7°F7.1°C 99% Calm Calm -- 26.38 in893.3 mb - 0.01 in0.3 mm 0.11 in2.8 mm
02:55 AM 45.0°F7.2°C 44.7°F7.1°C 99% Calm Calm -- 26.38 in893.3 mb - 0.01 in0.3 mm 0.11 in2.8 mm
03:00 AM 45.0°F7.2°C 44.7°F7.1°C 99% Calm Calm -- 26.38 in893.3 mb - 0.01 in0.3 mm 0.11 in2.8 mm
03:10 AM 45.0°F7.2°C 44.7°F7.1°C 99% Calm Calm -- 26.38 in893.3 mb - 0.02 in0.5 mm 0.12 in3.0 mm
03:15 AM 45.0°F7.2°C 44.7°F7.1°C 99% Calm Calm -- 26.38 in893.3 mb - 0.02 in0.5 mm 0.12 in3.0 mm
03:20 AM 45.0°F7.2°C 44.7°F7.1°C 99% Calm Calm -- 26.38 in893.3 mb - 0.01 in0.3 mm 0.12 in3.0 mm
03:25 AM 45.0°F7.2°C 44.7°F7.1°C 99% Calm Calm -- 26.38 in893.3 mb - 0.01 in0.3 mm 0.12 in3.0 mm
03:30 AM 45.0°F7.2°C 44.7°F7.1°C 99% Calm Calm -- 26.38 in893.3 mb - 0.01 in0.3 mm 0.12 in3.0 mm
03:35 AM 45.0°F7.2°C 44.7°F7.1°C 99% Calm Calm -- 26.38 in893.3 mb - 0.01 in0.3 mm 0.12 in3.0 mm
03:40 AM 45.0°F7.2°C 44.7°F7.1°C 99% Calm Calm -- 26.38 in893.3 mb - 0.01 in0.3 mm 0.12 in3.0 mm
03:45 AM 45.0°F7.2°C 44.7°F7.1°C 99% Calm Calm -- 26.38 in893.3 mb - 0.01 in0.3 mm 0.12 in3.0 mm
03:50 AM 45.0°F7.2°C 44.7°F7.1°C 99% Calm Calm -- 26.37 in893.0 mb - 0.01 in0.3 mm 0.12 in3.0 mm
03:55 AM 45.0°F7.2°C 44.7°F7.1°C 99% Calm Calm 1.2 mph1.9 kmh 26.38 in893.3 mb - 0.01 in0.3 mm 0.12 in3.0 mm
04:00 AM 45.0°F7.2°C 44.7°F7.1°C 99% Calm Calm 1.2 mph1.9 kmh 26.38 in893.3 mb - 0.01 in0.3 mm 0.12 in3.0 mm
04:10 AM 45.0°F7.2°C 44.7°F7.1°C 99% Calm Calm -- 26.39 in893.7 mb - 0.01 in0.3 mm 0.13 in3.3 mm
04:15 AM 45.0°F7.2°C 44.7°F7.1°C 99% Calm Calm 1.2 mph1.9 kmh 26.39 in893.7 mb - 0.02 in0.5 mm 0.14 in3.6 mm
04:20 AM 45.0°F7.2°C 44.7°F7.1°C 99% Calm Calm -- 26.38 in893.3 mb - 0.03 in0.8 mm 0.15 in3.8 mm
04:25 AM 45.0°F7.2°C 44.7°F7.1°C 99% Calm Calm -- 26.39 in893.7 mb - 0.03 in0.8 mm 0.15 in3.8 mm
04:30 AM 45.0°F7.2°C 44.7°F7.1°C 99% Calm Calm 1.2 mph1.9 kmh 26.39 in893.7 mb - 0.03 in0.8 mm 0.15 in3.8 mm
04:35 AM 45.0°F7.2°C 44.7°F7.1°C 99% Calm Calm 1.2 mph1.9 kmh 26.39 in893.7 mb - 0.03 in0.8 mm 0.15 in3.8 mm
04:40 AM 45.0°F7.2°C 44.7°F7.1°C 99% Calm Calm -- 26.38 in893.3 mb - 0.03 in0.8 mm 0.15 in3.8 mm
04:45 AM 45.0°F7.2°C 44.7°F7.1°C 99% Calm Calm -- 26.39 in893.7 mb - 0.03 in0.8 mm 0.15 in3.8 mm
04:50 AM 45.0°F7.2°C 44.7°F7.1°C 99% Calm Calm -- 26.39 in893.7 mb - 0.03 in0.8 mm 0.15 in3.8 mm
04:55 AM 45.0°F7.2°C 44.7°F7.1°C 99% Calm Calm -- 26.39 in893.7 mb - 0.03 in0.8 mm 0.15 in3.8 mm
05:00 AM 45.0°F7.2°C 44.7°F7.1°C 99% Calm Calm -- 26.40 in894.0 mb - 0.03 in0.8 mm 0.15 in3.8 mm
05:10 AM 44.0°F6.7°C 43.7°F6.5°C 99% Calm Calm -- 26.39 in893.7 mb - 0.02 in0.5 mm 0.15 in3.8 mm
05:15 AM 44.0°F6.7°C 43.7°F6.5°C 99% Calm Calm -- 26.40 in894.0 mb - 0.01 in0.3 mm 0.15 in3.8 mm
05:20 AM 45.0°F7.2°C 44.7°F7.1°C 99% Calm Calm 1.2 mph1.9 kmh 26.40 in894.0 mb - 0.00 in0.0 mm 0.15 in3.8 mm
05:25 AM 45.0°F7.2°C 44.7°F7.1°C 99% Calm Calm 1.2 mph1.9 kmh 26.40 in894.0 mb - 0.01 in0.3 mm 0.16 in4.1 mm
05:30 AM 45.0°F7.2°C 44.7°F7.1°C 99% Calm Calm -- 26.41 in894.3 mb - 0.02 in0.5 mm 0.17 in4.3 mm
05:35 AM 44.0°F6.7°C 43.7°F6.5°C 99% Calm Calm -- 26.41 in894.3 mb - 0.02 in0.5 mm 0.17 in4.3 mm
05:40 AM 44.0°F6.7°C 43.7°F6.5°C 99% Calm Calm 1.2 mph1.9 kmh 26.41 in894.3 mb - 0.02 in0.5 mm 0.17 in4.3 mm
05:45 AM 45.0°F7.2°C 44.7°F7.1°C 99% Calm Calm 1.2 mph1.9 kmh 26.40 in894.0 mb - 0.02 in0.5 mm 0.17 in4.3 mm
05:50 AM 45.0°F7.2°C 44.7°F7.1°C 99% 1.2 mph NE1.9 kmh NE 1.2 mph1.9 kmh 26.40 in894.0 mb - 0.02 in0.5 mm 0.17 in4.3 mm
05:55 AM 45.0°F7.2°C 44.7°F7.1°C 99% 1.2 mph NNE1.9 kmh NNE 1.2 mph1.9 kmh 26.41 in894.3 mb - 0.02 in0.5 mm 0.17 in4.3 mm
06:00 AM 45.0°F7.2°C 44.7°F7.1°C 99% Calm Calm -- 26.41 in894.3 mb - 0.02 in0.5 mm 0.17 in4.3 mm
06:10 AM 45.0°F7.2°C 44.7°F7.1°C 99% Calm Calm -- 26.41 in894.3 mb - 0.02 in0.5 mm 0.17 in4.3 mm
06:15 AM 45.0°F7.2°C 44.7°F7.1°C 99% Calm Calm -- 26.41 in894.3 mb - 0.02 in0.5 mm 0.17 in4.3 mm
06:20 AM 45.0°F7.2°C 44.7°F7.1°C 99% Calm Calm -- 26.41 in894.3 mb - 0.02 in0.5 mm 0.17 in4.3 mm
06:25 AM 46.0°F7.8°C 45.7°F7.6°C 99% Calm Calm -- 26.41 in894.3 mb - 0.01 in0.3 mm 0.17 in4.3 mm
06:30 AM 46.0°F7.8°C 45.7°F7.6°C 99% Calm Calm -- 26.41 in894.3 mb - 0.00 in0.0 mm 0.17 in4.3 mm
06:35 AM 46.0°F7.8°C 45.7°F7.6°C 99% Calm Calm -- 26.42 in894.7 mb - 0.00 in0.0 mm 0.17 in4.3 mm
06:40 AM 46.0°F7.8°C 45.7°F7.6°C 99% Calm Calm -- 26.41 in894.3 mb - 0.00 in0.0 mm 0.17 in4.3 mm
06:45 AM 46.0°F7.8°C 45.7°F7.6°C 99% Calm Calm -- 26.41 in894.3 mb - 0.01 in0.3 mm 0.18 in4.6 mm
06:50 AM 46.0°F7.8°C 45.7°F7.6°C 99% Calm Calm -- 26.42 in894.7 mb - 0.01 in0.3 mm 0.18 in4.6 mm
06:55 AM 45.0°F7.2°C 44.7°F7.1°C 99% Calm Calm -- 26.42 in894.7 mb - 0.01 in0.3 mm 0.18 in4.6 mm
07:00 AM 46.0°F7.8°C 45.7°F7.6°C 99% Calm Calm -- 26.42 in894.7 mb - 0.01 in0.3 mm 0.18 in4.6 mm
07:10 AM 46.0°F7.8°C 45.7°F7.6°C 99% Calm Calm 1.2 mph1.9 kmh 26.42 in894.7 mb - 0.03 in0.8 mm 0.20 in5.1 mm
07:15 AM 46.0°F7.8°C 45.7°F7.6°C 99% 1.2 mph NNE1.9 kmh NNE 1.2 mph1.9 kmh 26.42 in894.7 mb - 0.03 in0.8 mm 0.20 in5.1 mm
07:20 AM 46.0°F7.8°C 45.7°F7.6°C 99% 1.2 mph NNE1.9 kmh NNE 1.2 mph1.9 kmh 26.42 in894.7 mb - 0.04 in1.0 mm 0.21 in5.3 mm
07:25 AM 46.0°F7.8°C 45.7°F7.6°C 99% Calm Calm -- 26.42 in894.7 mb - 0.04 in1.0 mm 0.21 in5.3 mm
07:30 AM 46.0°F7.8°C 45.7°F7.6°C 99% Calm Calm -- 26.42 in894.7 mb - 0.04 in1.0 mm 0.21 in5.3 mm
07:35 AM 46.0°F7.8°C 45.7°F7.6°C 99% Calm Calm 1.2 mph1.9 kmh 26.42 in894.7 mb - 0.04 in1.0 mm 0.21 in5.3 mm
07:40 AM 46.0°F7.8°C 45.7°F7.6°C 99% Calm Calm -- 26.43 in895.0 mb - 0.04 in1.0 mm 0.21 in5.3 mm
07:45 AM 46.0°F7.8°C 45.7°F7.6°C 99% Calm Calm -- 26.43 in895.0 mb - 0.04 in1.0 mm 0.21 in5.3 mm
07:50 AM 46.0°F7.8°C 45.7°F7.6°C 99% Calm Calm -- 26.43 in895.0 mb - 0.04 in1.0 mm 0.22 in5.6 mm
07:55 AM 46.0°F7.8°C 45.7°F7.6°C 99% Calm Calm -- 26.44 in895.4 mb - 0.04 in1.0 mm 0.22 in5.6 mm
08:00 AM 46.0°F7.8°C 45.7°F7.6°C 99% Calm Calm -- 26.44 in895.4 mb - 0.05 in1.3 mm 0.23 in5.8 mm
08:10 AM 46.0°F7.8°C 45.7°F7.6°C 99% 1.2 mph N1.9 kmh N 2.3 mph3.7 kmh 26.45 in895.7 mb - 0.05 in1.3 mm 0.25 in6.4 mm
08:15 AM 46.0°F7.8°C 45.7°F7.6°C 99% 2.3 mph N3.7 kmh N 3.5 mph5.6 kmh 26.46 in896.0 mb - 0.07 in1.8 mm 0.27 in6.9 mm
08:20 AM 46.0°F7.8°C 45.7°F7.6°C 99% 2.3 mph N3.7 kmh N 3.5 mph5.6 kmh 26.46 in896.0 mb - 0.08 in2.0 mm 0.28 in7.1 mm
08:25 AM 46.0°F7.8°C 45.7°F7.6°C 99% 3.5 mph N5.6 kmh N 3.5 mph5.6 kmh 26.46 in896.0 mb - 0.07 in1.8 mm 0.28 in7.1 mm
08:30 AM 46.0°F7.8°C 45.7°F7.6°C 99% 1.2 mph N1.9 kmh N 2.3 mph3.7 kmh 26.46 in896.0 mb - 0.08 in2.0 mm 0.29 in7.4 mm
08:35 AM 46.0°F7.8°C 45.7°F7.6°C 99% 1.2 mph NNE1.9 kmh NNE 1.2 mph1.9 kmh 26.46 in896.0 mb - 0.08 in2.0 mm 0.29 in7.4 mm
08:40 AM 46.0°F7.8°C 45.7°F7.6°C 99% 2.3 mph NNE3.7 kmh NNE 2.3 mph3.7 kmh 26.46 in896.0 mb - 0.09 in2.3 mm 0.30 in7.6 mm
08:45 AM 46.0°F7.8°C 45.7°F7.6°C 99% 3.5 mph NNE5.6 kmh NNE 6.9 mph11.1 kmh 26.46 in896.0 mb - 0.09 in2.3 mm 0.30 in7.6 mm
08:50 AM 46.0°F7.8°C 45.7°F7.6°C 99% 3.5 mph NNE5.6 kmh NNE 6.9 mph11.1 kmh 26.46 in896.0 mb - 0.09 in2.3 mm 0.30 in7.6 mm
08:55 AM 46.0°F7.8°C 45.7°F7.6°C 99% 3.5 mph NNE5.6 kmh NNE 6.9 mph11.1 kmh 26.46 in896.0 mb - 0.08 in2.0 mm 0.30 in7.6 mm
09:00 AM 46.0°F7.8°C 45.7°F7.6°C 99% 2.3 mph N3.7 kmh N 2.3 mph3.7 kmh 26.46 in896.0 mb - 0.07 in1.8 mm 0.30 in7.6 mm
09:10 AM 46.0°F7.8°C 45.7°F7.6°C 99% 1.2 mph NE1.9 kmh NE 1.2 mph1.9 kmh 26.46 in896.0 mb - 0.05 in1.3 mm 0.30 in7.6 mm
09:15 AM 47.0°F8.3°C 46.7°F8.2°C 99% 1.2 mph N1.9 kmh N 1.2 mph1.9 kmh 26.46 in896.0 mb - 0.03 in0.8 mm 0.30 in7.6 mm
09:20 AM 47.0°F8.3°C 46.7°F8.2°C 99% Calm Calm 1.2 mph1.9 kmh 26.46 in896.0 mb - 0.03 in0.8 mm 0.30 in7.6 mm
09:25 AM 47.0°F8.3°C 46.7°F8.2°C 99% Calm Calm 2.3 mph3.7 kmh 26.46 in896.0 mb - 0.02 in0.5 mm 0.30 in7.6 mm
09:30 AM 47.0°F8.3°C 46.7°F8.2°C 99% 1.2 mph N1.9 kmh N 2.3 mph3.7 kmh 26.46 in896.0 mb - 0.01 in0.3 mm 0.30 in7.6 mm
09:35 AM 47.0°F8.3°C 46.7°F8.2°C 99% Calm Calm 1.2 mph1.9 kmh 26.47 in896.4 mb - 0.01 in0.3 mm 0.30 in7.6 mm
09:40 AM 47.0°F8.3°C 46.7°F8.2°C 99% Calm Calm 1.2 mph1.9 kmh 26.47 in896.4 mb - 0.00 in0.0 mm 0.30 in7.6 mm
09:45 AM 47.0°F8.3°C 46.7°F8.2°C 99% Calm Calm 1.2 mph1.9 kmh 26.47 in896.4 mb - 0.00 in0.0 mm 0.30 in7.6 mm
09:50 AM 47.0°F8.3°C 46.7°F8.2°C 99% 1.2 mph NNE1.9 kmh NNE 2.3 mph3.7 kmh 26.47 in896.4 mb - 0.00 in0.0 mm 0.30 in7.6 mm
09:55 AM 47.5°F8.6°C 47.2°F8.4°C 99% Calm Calm 2.3 mph3.7 kmh 26.47 in896.4 mb - 0.00 in0.0 mm 0.30 in7.6 mm
10:00 AM 48.0°F8.9°C 47.7°F8.7°C 99% Calm Calm -- 26.47 in896.4 mb - 0.00 in0.0 mm 0.30 in7.6 mm
10:10 AM 48.0°F8.9°C 47.5°F8.6°C 98% 3.5 mph ENE5.6 kmh ENE 3.5 mph5.6 kmh 26.49 in897.1 mb - 0.00 in0.0 mm 0.30 in7.6 mm
10:15 AM 48.0°F8.9°C 47.5°F8.6°C 98% 2.3 mph N3.7 kmh N 2.3 mph3.7 kmh 26.49 in897.1 mb - 0.00 in0.0 mm 0.30 in7.6 mm
10:20 AM 48.0°F8.9°C 47.5°F8.6°C 98% 2.3 mph NNE3.7 kmh NNE 3.5 mph5.6 kmh 26.49 in897.1 mb - 0.00 in0.0 mm 0.30 in7.6 mm
10:25 AM 48.0°F8.9°C 47.5°F8.6°C 98% 2.3 mph NNE3.7 kmh NNE 3.5 mph5.6 kmh 26.49 in897.1 mb - 0.00 in0.0 mm 0.30 in7.6 mm
10:30 AM 48.0°F8.9°C 47.5°F8.6°C 98% 2.3 mph NNE3.7 kmh NNE 2.3 mph3.7 kmh 26.49 in897.1 mb - 0.00 in0.0 mm 0.30 in7.6 mm
10:35 AM 48.0°F8.9°C 46.9°F8.3°C 96% 2.3 mph NE3.7 kmh NE 3.5 mph5.6 kmh 26.49 in897.1 mb - 0.00 in0.0 mm 0.30 in7.6 mm
10:40 AM 50.0°F10.0°C 48.9°F9.4°C 96% Calm Calm 1.2 mph1.9 kmh 26.48 in896.7 mb - 0.00 in0.0 mm 0.30 in7.6 mm
10:45 AM 51.0°F10.6°C 49.6°F9.8°C 95% Calm Calm -- 26.48 in896.7 mb - 0.00 in0.0 mm 0.30 in7.6 mm
10:50 AM 52.0°F11.1°C 49.2°F9.6°C 90% 2.3 mph NE3.7 kmh NE 3.5 mph5.6 kmh 26.49 in897.1 mb - 0.00 in0.0 mm 0.30 in7.6 mm
10:55 AM 50.0°F10.0°C 47.8°F8.8°C 92% 1.2 mph ENE1.9 kmh ENE 1.2 mph1.9 kmh 26.49 in897.1 mb - 0.00 in0.0 mm 0.30 in7.6 mm
11:00 AM 50.5°F10.3°C 48.3°F9.1°C 92% 1.2 mph NE1.9 kmh NE 1.2 mph1.9 kmh 26.49 in897.1 mb - 0.00 in0.0 mm 0.30 in7.6 mm
11:10 AM 51.0°F10.6°C 48.5°F9.2°C 91% 2.3 mph NNE3.7 kmh NNE 3.5 mph5.6 kmh 26.49 in897.1 mb - 0.00 in0.0 mm 0.30 in7.6 mm
11:15 AM 51.0°F10.6°C 48.8°F9.3°C 92% 2.3 mph NNE3.7 kmh NNE 2.3 mph3.7 kmh 26.49 in897.1 mb - 0.00 in0.0 mm 0.30 in7.6 mm
11:20 AM 51.0°F10.6°C 48.5°F9.2°C 91% 2.3 mph N3.7 kmh N 3.5 mph5.6 kmh 26.49 in897.1 mb - 0.00 in0.0 mm 0.30 in7.6 mm
11:25 AM 51.0°F10.6°C 48.5°F9.2°C 91% 2.3 mph N3.7 kmh N 3.5 mph5.6 kmh 26.48 in896.7 mb - 0.00 in0.0 mm 0.30 in7.6 mm
11:30 AM 51.5°F10.8°C 48.7°F9.3°C 90% 2.3 mph N3.7 kmh N 3.5 mph5.6 kmh 26.48 in896.7 mb - 0.00 in0.0 mm 0.30 in7.6 mm
11:35 AM 52.0°F11.1°C 48.9°F9.4°C 89% 2.3 mph N3.7 kmh N 2.3 mph3.7 kmh 26.48 in896.7 mb - 0.00 in0.0 mm 0.30 in7.6 mm
11:40 AM 52.0°F11.1°C 48.6°F9.2°C 88% Calm Calm 1.2 mph1.9 kmh 26.49 in897.1 mb - 0.00 in0.0 mm 0.30 in7.6 mm
11:45 AM 52.0°F11.1°C 48.6°F9.2°C 88% Calm Calm -- 26.48 in896.7 mb - 0.00 in0.0 mm 0.30 in7.6 mm
11:50 AM 53.0°F11.7°C 48.3°F9.1°C 84% 3.5 mph N5.6 kmh N 5.8 mph9.3 kmh 26.47 in896.4 mb - 0.00 in0.0 mm 0.30 in7.6 mm
11:55 AM 54.0°F12.2°C 48.6°F9.2°C 82% 2.3 mph N3.7 kmh N 2.3 mph3.7 kmh 26.47 in896.4 mb - 0.00 in0.0 mm 0.30 in7.6 mm
12:00 PM 54.0°F12.2°C 48.0°F8.9°C 80% 1.2 mph NNE1.9 kmh NNE 2.3 mph3.7 kmh 26.47 in896.4 mb - 0.00 in0.0 mm 0.30 in7.6 mm
12:10 PM 54.0°F12.2°C 47.6°F8.7°C 79% 1.2 mph N1.9 kmh N 5.8 mph9.3 kmh 26.47 in896.4 mb - 0.00 in0.0 mm 0.30 in7.6 mm
12:15 PM 54.0°F12.2°C 50.2°F10.1°C 87% Calm Calm -- 26.47 in896.4 mb - 0.00 in0.0 mm 0.30 in7.6 mm
12:20 PM 54.0°F12.2°C 48.6°F9.2°C 82% 3.5 mph N5.6 kmh N 6.9 mph11.1 kmh 26.48 in896.7 mb - 0.00 in0.0 mm 0.30 in7.6 mm
12:25 PM 54.0°F12.2°C 48.0°F8.9°C 80% 3.5 mph NNE5.6 kmh NNE 5.8 mph9.3 kmh 26.47 in896.4 mb - 0.00 in0.0 mm 0.30 in7.6 mm
12:30 PM 56.0°F13.3°C 49.2°F9.6°C 78% 3.5 mph N5.6 kmh N 9.2 mph14.8 kmh 26.46 in896.0 mb - 0.00 in0.0 mm 0.30 in7.6 mm
12:35 PM 56.0°F13.3°C 49.6°F9.8°C 79% 3.5 mph N5.6 kmh N 9.2 mph14.8 kmh 26.46 in896.0 mb - 0.00 in0.0 mm 0.30 in7.6 mm
12:40 PM 55.0°F12.8°C 48.9°F9.4°C 80% 3.5 mph NNE5.6 kmh NNE 3.5 mph5.6 kmh 26.46 in896.0 mb - 0.00 in0.0 mm 0.30 in7.6 mm
12:45 PM 55.0°F12.8°C 47.9°F8.8°C 77% 3.5 mph NNW5.6 kmh NNW 3.5 mph5.6 kmh 26.46 in896.0 mb - 0.00 in0.0 mm 0.30 in7.6 mm
12:50 PM 57.0°F13.9°C 48.1°F8.9°C 72% 3.5 mph NNW5.6 kmh NNW 5.8 mph9.3 kmh 26.46 in896.0 mb - 0.00 in0.0 mm 0.30 in7.6 mm
12:55 PM 56.0°F13.3°C 47.5°F8.6°C 73% 5.8 mph NNE9.3 kmh NNE 11.5 mph18.5 kmh 26.46 in896.0 mb - 0.00 in0.0 mm 0.30 in7.6 mm
01:00 PM 56.0°F13.3°C 47.5°F8.6°C 73% 3.5 mph WNW5.6 kmh WNW 8.1 mph13.0 kmh 26.46 in896.0 mb - 0.00 in0.0 mm 0.30 in7.6 mm
01:10 PM 56.0°F13.3°C 47.5°F8.6°C 73% 1.2 mph NW1.9 kmh NW 2.3 mph3.7 kmh 26.46 in896.0 mb - 0.00 in0.0 mm 0.30 in7.6 mm
01:15 PM 56.0°F13.3°C 47.1°F8.4°C 72% 1.2 mph NNE1.9 kmh NNE 2.3 mph3.7 kmh 26.46 in896.0 mb - 0.00 in0.0 mm 0.30 in7.6 mm
01:20 PM 56.0°F13.3°C 48.5°F9.2°C 76% 1.2 mph NNE1.9 kmh NNE 3.5 mph5.6 kmh 26.46 in896.0 mb - 0.00 in0.0 mm 0.30 in7.6 mm
01:25 PM 57.0°F13.9°C 49.5°F9.7°C 76% 2.3 mph N3.7 kmh N 5.8 mph9.3 kmh 26.47 in896.4 mb - 0.00 in0.0 mm 0.30 in7.6 mm
01:30 PM 56.0°F13.3°C 49.2°F9.6°C 78% 3.5 mph NE5.6 kmh NE 3.5 mph5.6 kmh 26.46 in896.0 mb - 0.00 in0.0 mm 0.30 in7.6 mm
01:35 PM 56.0°F13.3°C 47.8°F8.8°C 74% 3.5 mph N5.6 kmh N 5.8 mph9.3 kmh 26.47 in896.4 mb - 0.00 in0.0 mm 0.30 in7.6 mm
01:40 PM 55.3°F12.9°C 47.5°F8.6°C 75% 2.3 mph N3.7 kmh N 5.8 mph9.3 kmh 26.47 in896.4 mb - 0.00 in0.0 mm 0.30 in7.6 mm
01:45 PM 55.0°F12.8°C 47.6°F8.7°C 76% 1.2 mph N1.9 kmh N 2.3 mph3.7 kmh 26.47 in896.4 mb - 0.00 in0.0 mm 0.30 in7.6 mm
01:50 PM 55.0°F12.8°C 46.9°F8.3°C 74% 2.3 mph N3.7 kmh N 3.5 mph5.6 kmh 26.46 in896.0 mb - 0.00 in0.0 mm 0.30 in7.6 mm
01:55 PM 56.0°F13.3°C 48.2°F9.0°C 75% 1.2 mph N1.9 kmh N 1.2 mph1.9 kmh 26.46 in896.0 mb - 0.00 in0.0 mm 0.30 in7.6 mm
02:00 PM 55.0°F12.8°C 48.3°F9.1°C 78% 3.5 mph N5.6 kmh N 3.5 mph5.6 kmh 26.46 in896.0 mb - 0.00 in0.0 mm 0.30 in7.6 mm
02:10 PM 54.0°F12.2°C 49.3°F9.6°C 84% 2.3 mph N3.7 kmh N 2.3 mph3.7 kmh 26.47 in896.4 mb - 0.00 in0.0 mm 0.30 in7.6 mm
02:15 PM 53.7°F12.1°C 49.3°F9.6°C 85% 1.2 mph N1.9 kmh N 2.3 mph3.7 kmh 26.47 in896.4 mb - 0.00 in0.0 mm 0.30 in7.6 mm
02:20 PM 53.0°F11.7°C 49.2°F9.6°C 87% 1.2 mph N1.9 kmh N 2.3 mph3.7 kmh 26.47 in896.4 mb - 0.00 in0.0 mm 0.30 in7.6 mm
02:25 PM 53.0°F11.7°C 49.2°F9.6°C 87% 1.2 mph N1.9 kmh N 2.3 mph3.7 kmh 26.47 in896.4 mb - 0.00 in0.0 mm 0.30 in7.6 mm
02:30 PM 56.0°F13.3°C 49.2°F9.6°C 78% 3.5 mph NE5.6 kmh NE 3.5 mph5.6 kmh 26.46 in896.0 mb - 0.00 in0.0 mm 0.30 in7.6 mm
02:35 PM 52.0°F11.1°C 48.6°F9.2°C 88% 2.3 mph N3.7 kmh N 2.3 mph3.7 kmh 26.47 in896.4 mb - 0.00 in0.0 mm 0.30 in7.6 mm
02:40 PM 52.0°F11.1°C 48.3°F9.1°C 87% 3.5 mph N5.6 kmh N 6.9 mph11.1 kmh 26.47 in896.4 mb - 0.00 in0.0 mm 0.30 in7.6 mm
02:45 PM 52.0°F11.1°C 48.6°F9.2°C 88% 2.3 mph N3.7 kmh N 6.9 mph11.1 kmh 26.47 in896.4 mb - 0.00 in0.0 mm 0.30 in7.6 mm
02:50 PM 52.0°F11.1°C 48.9°F9.4°C 89% 2.3 mph N3.7 kmh N 2.3 mph3.7 kmh 26.47 in896.4 mb - 0.00 in0.0 mm 0.30 in7.6 mm
02:55 PM 52.0°F11.1°C 48.9°F9.4°C 89% 1.2 mph N1.9 kmh N 2.3 mph3.7 kmh 26.47 in896.4 mb - 0.00 in0.0 mm 0.30 in7.6 mm
03:00 PM 51.0°F10.6°C 47.0°F8.3°C 86% 3.5 mph N5.6 kmh N 3.5 mph5.6 kmh 26.47 in896.4 mb - 0.00 in0.0 mm 0.30 in7.6 mm
03:10 PM 51.0°F10.6°C 48.5°F9.2°C 91% 3.5 mph NNE5.6 kmh NNE 5.8 mph9.3 kmh 26.48 in896.7 mb - 0.01 in0.3 mm 0.31 in7.9 mm
03:15 PM 50.3°F10.2°C 48.1°F8.9°C 92% 2.3 mph N3.7 kmh N 5.8 mph9.3 kmh 26.49 in897.1 mb - 0.01 in0.3 mm 0.31 in7.9 mm
03:20 PM 50.0°F10.0°C 47.8°F8.8°C 92% 2.3 mph N3.7 kmh N 3.5 mph5.6 kmh 26.49 in897.1 mb - 0.01 in0.3 mm 0.31 in7.9 mm
03:25 PM 50.0°F10.0°C 48.1°F8.9°C 93% Calm Calm 1.2 mph1.9 kmh 26.49 in897.1 mb - 0.02 in0.5 mm 0.32 in8.1 mm
03:30 PM 50.0°F10.0°C 48.1°F8.9°C 93% Calm Calm 1.2 mph1.9 kmh 26.49 in897.1 mb - 0.03 in0.8 mm 0.33 in8.4 mm
03:35 PM 49.0°F9.4°C 47.6°F8.7°C 95% Calm Calm -- 26.50 in897.4 mb - 0.04 in1.0 mm 0.34 in8.6 mm
03:40 PM 49.0°F9.4°C 47.6°F8.7°C 95% Calm Calm -- 26.49 in897.1 mb - 0.05 in1.3 mm 0.35 in8.9 mm
03:45 PM 48.7°F9.3°C 47.3°F8.5°C 95% Calm Calm -- 26.49 in897.1 mb - 0.06 in1.5 mm 0.36 in9.1 mm
03:50 PM 48.0°F8.9°C 46.6°F8.1°C 95% Calm Calm -- 26.49 in897.1 mb - 0.06 in1.5 mm 0.36 in9.1 mm
03:55 PM 48.0°F8.9°C 46.9°F8.3°C 96% Calm Calm -- 26.49 in897.1 mb - 0.07 in1.8 mm 0.37 in9.4 mm
04:00 PM 48.0°F8.9°C 46.9°F8.3°C 96% Calm Calm -- 26.50 in897.4 mb - 0.08 in2.0 mm 0.38 in9.7 mm
04:10 PM 47.0°F8.3°C 46.2°F7.9°C 97% Calm Calm 1.2 mph1.9 kmh 26.50 in897.4 mb - 0.09 in2.3 mm 0.40 in10.2 mm
04:15 PM 47.0°F8.3°C 46.2°F7.9°C 97% Calm Calm 1.2 mph1.9 kmh 26.50 in897.4 mb - 0.10 in2.5 mm 0.41 in10.4 mm
04:20 PM 47.0°F8.3°C 46.2°F7.9°C 97% Calm Calm 1.2 mph1.9 kmh 26.50 in897.4 mb - 0.10 in2.5 mm 0.41 in10.4 mm
04:25 PM 47.0°F8.3°C 46.5°F8.1°C 98% Calm Calm -- 26.51 in897.7 mb - 0.10 in2.5 mm 0.42 in10.7 mm
04:30 PM 46.0°F7.8°C 45.5°F7.5°C 98% Calm Calm -- 26.51 in897.7 mb - 0.10 in2.5 mm 0.43 in10.9 mm
04:35 PM 47.0°F8.3°C 46.5°F8.1°C 98% Calm Calm -- 26.51 in897.7 mb - 0.18 in4.6 mm 0.52 in13.2 mm
04:40 PM 46.1°F7.8°C 45.5°F7.5°C 98% Calm Calm -- 26.51 in897.7 mb - 0.18 in4.6 mm 0.53 in13.5 mm
04:45 PM 46.0°F7.8°C 45.5°F7.5°C 98% Calm Calm -- 26.51 in897.7 mb - 0.18 in4.6 mm 0.53 in13.5 mm
04:50 PM 46.0°F7.8°C 45.5°F7.5°C 98% Calm Calm -- 26.52 in898.1 mb - 0.17 in4.3 mm 0.53 in13.5 mm
04:55 PM 46.0°F7.8°C 45.5°F7.5°C 98% Calm Calm -- 26.51 in897.7 mb - 0.16 in4.1 mm 0.53 in13.5 mm
05:00 PM 45.0°F7.2°C 44.2°F6.8°C 97% Calm Calm 1.2 mph1.9 kmh 26.52 in898.1 mb - 0.16 in4.1 mm 0.54 in13.7 mm
05:10 PM 46.0°F7.8°C 45.2°F7.3°C 97% 1.2 mph NE1.9 kmh NE 2.3 mph3.7 kmh 26.52 in898.1 mb - 0.14 in3.6 mm 0.54 in13.7 mm
05:15 PM 46.0°F7.8°C 45.2°F7.3°C 97% 1.2 mph NNE1.9 kmh NNE 3.5 mph5.6 kmh 26.52 in898.1 mb - 0.15 in3.8 mm 0.55 in14.0 mm
05:20 PM 46.0°F7.8°C 44.9°F7.2°C 96% 2.3 mph NNE3.7 kmh NNE 3.5 mph5.6 kmh 26.52 in898.1 mb - 0.14 in3.6 mm 0.55 in14.0 mm
05:25 PM 46.0°F7.8°C 45.2°F7.3°C 97% Calm Calm 1.2 mph1.9 kmh 26.51 in897.7 mb - 0.13 in3.3 mm 0.55 in14.0 mm
05:30 PM 45.0°F7.2°C 43.7°F6.5°C 95% 1.2 mph NE1.9 kmh NE 2.3 mph3.7 kmh 26.52 in898.1 mb - 0.12 in3.0 mm 0.55 in14.0 mm
05:35 PM 45.0°F7.2°C 43.7°F6.5°C 95% 1.2 mph NE1.9 kmh NE 1.2 mph1.9 kmh 26.53 in898.4 mb - 0.04 in1.0 mm 0.56 in14.2 mm
05:40 PM 45.0°F7.2°C 43.9°F6.6°C 96% 2.3 mph NE3.7 kmh NE 2.3 mph3.7 kmh 26.53 in898.4 mb - 0.03 in0.8 mm 0.56 in14.2 mm
05:45 PM 45.0°F7.2°C 43.9°F6.6°C 96% 1.2 mph NNE1.9 kmh NNE 2.3 mph3.7 kmh 26.52 in898.1 mb - 0.03 in0.8 mm 0.56 in14.2 mm
05:50 PM 45.0°F7.2°C 43.9°F6.6°C 96% 1.2 mph N1.9 kmh N 2.3 mph3.7 kmh 26.51 in897.7 mb - 0.03 in0.8 mm 0.56 in14.2 mm
05:55 PM 45.0°F7.2°C 44.2°F6.8°C 97% Calm Calm -- 26.52 in898.1 mb - 0.03 in0.8 mm 0.56 in14.2 mm
06:00 PM 45.0°F7.2°C 44.2°F6.8°C 97% Calm Calm -- 26.52 in898.1 mb - 0.03 in0.8 mm 0.57 in14.5 mm
06:10 PM 45.0°F7.2°C 44.5°F6.9°C 98% Calm Calm -- 26.52 in898.1 mb - 0.03 in0.8 mm 0.57 in14.5 mm
06:15 PM 45.0°F7.2°C 44.5°F6.9°C 98% Calm Calm -- 26.52 in898.1 mb - 0.03 in0.8 mm 0.57 in14.5 mm
06:20 PM 45.0°F7.2°C 44.5°F6.9°C 98% Calm Calm -- 26.52 in898.1 mb - 0.03 in0.8 mm 0.58 in14.7 mm
06:25 PM 45.0°F7.2°C 44.5°F6.9°C 98% Calm Calm -- 26.53 in898.4 mb - 0.03 in0.8 mm 0.58 in14.7 mm
06:30 PM 45.0°F7.2°C 44.5°F6.9°C 98% Calm Calm -- 26.53 in898.4 mb - 0.04 in1.0 mm 0.59 in15.0 mm
06:35 PM 45.0°F7.2°C 44.7°F7.1°C 99% Calm Calm -- 26.53 in898.4 mb - 0.05 in1.3 mm 0.61 in15.5 mm
06:40 PM 46.0°F7.8°C 45.7°F7.6°C 99% Calm Calm -- 26.54 in898.7 mb - 0.06 in1.5 mm 0.62 in15.7 mm
06:45 PM 45.0°F7.2°C 44.7°F7.1°C 99% Calm Calm -- 26.53 in898.4 mb - 0.08 in2.0 mm 0.64 in16.3 mm
06:50 PM 45.0°F7.2°C 44.7°F7.1°C 99% Calm Calm -- 26.53 in898.4 mb - 0.09 in2.3 mm 0.65 in16.5 mm
06:55 PM 45.0°F7.2°C 44.7°F7.1°C 99% Calm Calm -- 26.54 in898.7 mb - 0.09 in2.3 mm 0.65 in16.5 mm
07:00 PM 45.0°F7.2°C 44.7°F7.1°C 99% Calm Calm -- 26.54 in898.7 mb - 0.10 in2.5 mm 0.67 in17.0 mm
07:10 PM 45.0°F7.2°C 44.7°F7.1°C 99% Calm Calm -- 26.54 in898.7 mb - 0.11 in2.8 mm 0.68 in17.3 mm
07:15 PM 45.0°F7.2°C 44.7°F7.1°C 99% Calm Calm -- 26.54 in898.7 mb - 0.12 in3.0 mm 0.69 in17.5 mm
07:20 PM 45.0°F7.2°C 44.7°F7.1°C 99% Calm Calm -- 26.54 in898.7 mb - 0.12 in3.0 mm 0.69 in17.5 mm
07:25 PM 45.0°F7.2°C 44.7°F7.1°C 99% Calm Calm -- 26.54 in898.7 mb - 0.11 in2.8 mm 0.69 in17.5 mm
07:30 PM 45.0°F7.2°C 44.7°F7.1°C 99% Calm Calm -- 26.54 in898.7 mb - 0.10 in2.5 mm 0.69 in17.5 mm
07:35 PM 45.0°F7.2°C 44.7°F7.1°C 99% Calm Calm -- 26.54 in898.7 mb - 0.08 in2.0 mm 0.69 in17.5 mm
07:40 PM 45.0°F7.2°C 44.7°F7.1°C 99% Calm Calm -- 26.53 in898.4 mb - 0.07 in1.8 mm 0.69 in17.5 mm
07:45 PM 45.0°F7.2°C 44.7°F7.1°C 99% Calm Calm -- 26.54 in898.7 mb - 0.05 in1.3 mm 0.69 in17.5 mm
07:50 PM 45.0°F7.2°C 44.7°F7.1°C 99% Calm Calm 1.2 mph1.9 kmh 26.55 in899.1 mb - 0.06 in1.5 mm 0.70 in17.8 mm
07:55 PM 45.0°F7.2°C 44.7°F7.1°C 99% Calm Calm 1.2 mph1.9 kmh 26.55 in899.1 mb - 0.05 in1.3 mm 0.70 in17.8 mm
08:00 PM 45.0°F7.2°C 44.7°F7.1°C 99% Calm Calm -- 26.55 in899.1 mb - 0.03 in0.8 mm 0.70 in17.8 mm
08:10 PM 44.0°F6.7°C 43.7°F6.5°C 99% Calm Calm -- 26.56 in899.4 mb - 0.02 in0.5 mm 0.70 in17.8 mm
08:15 PM 44.0°F6.7°C 43.7°F6.5°C 99% Calm Calm -- 26.56 in899.4 mb - 0.01 in0.3 mm 0.70 in17.8 mm
08:20 PM 45.0°F7.2°C 44.7°F7.1°C 99% Calm Calm -- 26.55 in899.1 mb - 0.01 in0.3 mm 0.70 in17.8 mm
08:25 PM 44.0°F6.7°C 43.7°F6.5°C 99% Calm Calm -- 26.55 in899.1 mb - 0.01 in0.3 mm 0.70 in17.8 mm
08:30 PM 44.0°F6.7°C 43.7°F6.5°C 99% Calm Calm -- 26.55 in899.1 mb - 0.01 in0.3 mm 0.70 in17.8 mm
08:35 PM 44.0°F6.7°C 43.7°F6.5°C 99% Calm Calm -- 26.56 in899.4 mb - 0.01 in0.3 mm 0.70 in17.8 mm
08:40 PM 44.0°F6.7°C 43.7°F6.5°C 99% Calm Calm -- 26.57 in899.8 mb - 0.01 in0.3 mm 0.70 in17.8 mm
08:45 PM 45.0°F7.2°C 44.7°F7.1°C 99% Calm Calm -- 26.56 in899.4 mb - 0.01 in0.3 mm 0.70 in17.8 mm
08:50 PM 45.0°F7.2°C 44.7°F7.1°C 99% Calm Calm -- 26.57 in899.8 mb - 0.00 in0.0 mm 0.70 in17.8 mm
08:55 PM 44.0°F6.7°C 43.7°F6.5°C 99% Calm Calm -- 26.56 in899.4 mb - 0.00 in0.0 mm 0.70 in17.8 mm
09:00 PM 44.0°F6.7°C 43.7°F6.5°C 99% Calm Calm -- 26.57 in899.8 mb - 0.00 in0.0 mm 0.70 in17.8 mm
09:10 PM 44.0°F6.7°C 43.7°F6.5°C 99% Calm Calm -- 26.58 in900.1 mb - 0.01 in0.3 mm 0.71 in18.0 mm
09:15 PM 44.0°F6.7°C 43.7°F6.5°C 99% 1.2 mph NNE1.9 kmh NNE 1.2 mph1.9 kmh 26.58 in900.1 mb - 0.01 in0.3 mm 0.71 in18.0 mm
09:20 PM 44.0°F6.7°C 43.7°F6.5°C 99% 1.2 mph N1.9 kmh N 1.2 mph1.9 kmh 26.59 in900.4 mb - 0.01 in0.3 mm 0.71 in18.0 mm
09:25 PM 44.0°F6.7°C 43.7°F6.5°C 99% Calm Calm -- 26.59 in900.4 mb - 0.01 in0.3 mm 0.71 in18.0 mm
09:30 PM 44.0°F6.7°C 43.7°F6.5°C 99% Calm Calm 1.2 mph1.9 kmh 26.59 in900.4 mb - 0.02 in0.5 mm 0.72 in18.3 mm
09:35 PM 44.0°F6.7°C 43.7°F6.5°C 99% Calm Calm -- 26.58 in900.1 mb - 0.02 in0.5 mm 0.72 in18.3 mm
09:40 PM 44.0°F6.7°C 43.7°F6.5°C 99% Calm Calm -- 26.58 in900.1 mb - 0.03 in0.8 mm 0.73 in18.5 mm
09:45 PM 45.0°F7.2°C 44.7°F7.1°C 99% Calm Calm -- 26.58 in900.1 mb - 0.03 in0.8 mm 0.73 in18.5 mm
09:50 PM 45.0°F7.2°C 44.7°F7.1°C 99% Calm Calm -- 26.58 in900.1 mb - 0.03 in0.8 mm 0.73 in18.5 mm
09:55 PM 45.0°F7.2°C 44.7°F7.1°C 99% Calm Calm -- 26.59 in900.4 mb - 0.03 in0.8 mm 0.73 in18.5 mm
10:00 PM 44.0°F6.7°C 43.7°F6.5°C 99% Calm Calm 1.2 mph1.9 kmh 26.60 in900.8 mb - 0.03 in0.8 mm 0.73 in18.5 mm
10:10 PM 44.0°F6.7°C 43.7°F6.5°C 99% 1.2 mph NNE1.9 kmh NNE 1.2 mph1.9 kmh 26.60 in900.8 mb - 0.02 in0.5 mm 0.73 in18.5 mm
10:15 PM 44.0°F6.7°C 43.7°F6.5°C 99% 1.2 mph NE1.9 kmh NE 1.2 mph1.9 kmh 26.60 in900.8 mb - 0.02 in0.5 mm 0.73 in18.5 mm
10:20 PM 44.0°F6.7°C 43.7°F6.5°C 99% 1.2 mph NNE1.9 kmh NNE 1.2 mph1.9 kmh 26.60 in900.8 mb - 0.02 in0.5 mm 0.73 in18.5 mm
10:25 PM 45.0°F7.2°C 44.7°F7.1°C 99% Calm Calm -- 26.59 in900.4 mb - 0.02 in0.5 mm 0.73 in18.5 mm
10:30 PM 45.0°F7.2°C 44.7°F7.1°C 99% Calm Calm -- 26.58 in900.1 mb - 0.01 in0.3 mm 0.73 in18.5 mm
10:35 PM 44.0°F6.7°C 43.7°F6.5°C 99% Calm Calm -- 26.59 in900.4 mb - 0.01 in0.3 mm 0.73 in18.5 mm
10:40 PM 45.0°F7.2°C 44.7°F7.1°C 99% Calm Calm -- 26.59 in900.4 mb - 0.01 in0.3 mm 0.73 in18.5 mm
10:45 PM 45.0°F7.2°C 44.7°F7.1°C 99% Calm Calm -- 26.59 in900.4 mb - 0.00 in0.0 mm 0.73 in18.5 mm
10:50 PM 45.0°F7.2°C 44.7°F7.1°C 99% Calm Calm -- 26.59 in900.4 mb - 0.00 in0.0 mm 0.73 in18.5 mm
10:55 PM 44.5°F6.9°C 44.2°F6.8°C 99% Calm Calm -- 26.59 in900.4 mb - 0.00 in0.0 mm 0.73 in18.5 mm
11:00 PM 44.0°F6.7°C 43.7°F6.5°C 99% Calm Calm -- 26.60 in900.8 mb - 0.00 in0.0 mm 7.78 in197.6 mm
11:10 PM 44.0°F6.7°C 43.7°F6.5°C 99% Calm Calm -- 26.60 in900.8 mb - 0.00 in0.0 mm 7.78 in197.6 mm
11:15 PM 44.0°F6.7°C 43.7°F6.5°C 99% Calm Calm -- 26.59 in900.4 mb - 0.00 in0.0 mm 7.78 in197.6 mm
11:20 PM 44.0°F6.7°C 43.7°F6.5°C 99% Calm Calm -- 26.59 in900.4 mb - 0.00 in0.0 mm 7.78 in197.6 mm
11:25 PM 44.0°F6.7°C 43.7°F6.5°C 99% Calm Calm -- 26.59 in900.4 mb - 0.00 in0.0 mm 7.78 in197.6 mm
11:30 PM 44.8°F7.1°C 44.6°F7.0°C 99% Calm Calm -- 26.59 in900.4 mb - 0.00 in0.0 mm 7.78 in197.6 mm
11:35 PM 45.0°F7.2°C 44.7°F7.1°C 99% Calm Calm 1.2 mph1.9 kmh 26.59 in900.4 mb - 0.00 in0.0 mm 7.78 in197.6 mm
11:40 PM 44.0°F6.7°C 43.7°F6.5°C 99% Calm Calm 1.2 mph1.9 kmh 26.59 in900.4 mb - 0.00 in0.0 mm 7.78 in197.6 mm
11:45 PM 44.0°F6.7°C 43.7°F6.5°C 99% Calm Calm -- 26.59 in900.4 mb - 0.00 in0.0 mm 7.78 in197.6 mm
11:50 PM 44.0°F6.7°C 43.7°F6.5°C 99% Calm Calm -- 26.59 in900.4 mb - 0.00 in0.0 mm 7.78 in197.6 mm
11:55 PM 44.0°F6.7°C 43.7°F6.5°C 99% Calm Calm -- 26.60 in900.8 mb - 0.00 in0.0 mm 7.78 in197.6 mm